Aviation Digital Data Service (ADDS)

Output produced by METARs form (0623 UTC 02 October 2014)
found at http://aviationweather.gov/adds/metars/
 
KPHX 020538Z 0206/0306 VRB05KT P6SM SKC 
     FM021000 08009KT P6SM SKC 
     TEMPO 0216/0218 08010G18KT 
     FM022200 34006KT P6SM SKC